Mattice, Canada
Current Conditions -  °F | °C
As of 11:00 AM on Thursday 30 Oct 2014 (Local Time) from CYYU Reporting Station
Light Snow Light Snow  
Wind Chill: 21°   Ceiling: 1500
Heat Index: 28°   Visibility: 3mi
Dew Point: 27°   Wind: 7mph
Humidity: 93%   Direction: 270°W
Pressure: 30.04"   Gusts: NA
Location:  49.61°N, 83.26°W
Report Text: CYYU 301500Z 27006KT 3SM -SN SCT005 OVC015 M02/M03 A3004 RMK SF4SC4 CIG RAG VIS VRB 21/4-4 SLP185
Loading
Personal Weather Stations






























Interactive Weather Map
Tropical Storm Tracking
New forecast layout! Learn more

10-Day Weather Forecast

Advertisements
Track Severe Weather on mobile